createdAt,value
2022-11-30T00:01:31.502Z,6.45
2022-11-30T00:03:59.366Z,6.30
2022-11-30T00:06:27.309Z,5.50
2022-11-30T00:08:56.643Z,6.28
2022-11-30T00:11:26.263Z,6.82
2022-11-30T00:13:54.543Z,6.22
2022-11-30T00:16:23.026Z,6.00
2022-11-30T00:18:51.559Z,5.88
2022-11-30T00:21:19.942Z,6.10
2022-11-30T00:23:48.652Z,5.60
2022-11-30T00:26:19.219Z,6.90
2022-11-30T00:28:47.942Z,6.40
2022-11-30T00:31:18.271Z,6.47
2022-11-30T00:33:46.329Z,6.95
2022-11-30T00:36:17.310Z,7.05
2022-11-30T00:38:45.652Z,7.63
2022-11-30T00:41:14.104Z,5.95
2022-11-30T00:43:42.430Z,6.97
2022-11-30T00:46:10.851Z,6.72
2022-11-30T00:48:39.661Z,6.55
2022-11-30T00:51:09.342Z,6.10
2022-11-30T00:53:38.133Z,5.57
2022-11-30T00:56:06.649Z,5.80
2022-11-30T00:58:34.616Z,7.82
2022-11-30T01:01:02.707Z,6.10
2022-11-30T01:03:30.559Z,6.80
2022-11-30T01:06:06.063Z,5.32
2022-11-30T01:08:34.902Z,7.55
2022-11-30T01:11:08.240Z,6.43
2022-11-30T01:13:36.178Z,6.18
2022-11-30T01:16:10.260Z,6.35
2022-11-30T01:18:38.830Z,5.10
2022-11-30T01:21:11.699Z,5.50
2022-11-30T01:23:40.103Z,6.57
2022-11-30T01:26:08.695Z,4.90
2022-11-30T01:28:36.815Z,6.32
2022-11-30T01:31:06.615Z,4.80
2022-11-30T01:33:35.320Z,5.88
2022-11-30T01:36:06.555Z,5.90
2022-11-30T01:38:39.568Z,6.78
2022-11-30T01:41:08.763Z,5.78
2022-11-30T01:44:05.610Z,6.90
2022-11-30T01:46:40.705Z,5.90
2022-11-30T01:49:11.691Z,5.97
2022-11-30T01:51:45.703Z,5.78
2022-11-30T01:54:16.803Z,5.80
2022-11-30T01:56:52.132Z,5.95
2022-11-30T01:59:22.111Z,5.80
2022-11-30T02:01:50.452Z,5.72
2022-11-30T02:04:26.507Z,5.95
2022-11-30T02:06:55.459Z,6.15
2022-11-30T02:09:24.480Z,5.38
2022-11-30T02:11:52.592Z,5.75
2022-11-30T02:14:45.892Z,6.20
2022-11-30T02:17:27.116Z,5.47
2022-11-30T02:20:40.890Z,5.43
2022-11-30T02:23:42.420Z,5.65
2022-11-30T02:26:31.147Z,5.10
2022-11-30T02:29:43.217Z,4.97
2022-11-30T02:32:29.740Z,6.25
2022-11-30T02:35:00.761Z,5.47
2022-11-30T02:37:30.333Z,7.18
2022-11-30T02:39:58.481Z,5.70
2022-11-30T02:42:26.297Z,5.05
2022-11-30T02:44:54.934Z,5.95
2022-11-30T02:47:40.831Z,5.43
2022-11-30T02:52:43.131Z,4.93
2022-11-30T02:55:14.843Z,4.68
2022-11-30T02:57:42.874Z,5.07
2022-11-30T03:00:12.092Z,6.40
2022-11-30T03:02:40.935Z,4.72
2022-11-30T03:05:09.759Z,4.85
2022-11-30T03:07:38.077Z,6.38
2022-11-30T03:10:06.875Z,5.13
2022-11-30T03:12:34.763Z,7.00
2022-11-30T03:15:02.718Z,5.28
2022-11-30T03:17:30.637Z,4.78
2022-11-30T03:19:58.499Z,5.85
2022-11-30T03:22:26.530Z,5.20
2022-11-30T03:24:54.324Z,5.97
2022-11-30T03:27:22.997Z,5.60
2022-11-30T03:29:50.868Z,5.57
2022-11-30T03:32:19.611Z,5.57
2022-11-30T03:34:47.631Z,5.70
2022-11-30T03:37:15.753Z,5.05
2022-11-30T03:39:43.774Z,6.07
2022-11-30T03:42:11.564Z,5.85
2022-11-30T03:44:39.557Z,5.60
2022-11-30T03:47:07.465Z,5.25
2022-11-30T03:49:35.330Z,5.18
2022-11-30T03:52:03.187Z,5.78
2022-11-30T03:54:31.082Z,5.70
2022-11-30T03:56:58.968Z,4.57
2022-11-30T03:59:26.866Z,5.32
2022-11-30T04:01:54.818Z,5.50
2022-11-30T04:04:22.711Z,5.15
2022-11-30T04:06:50.550Z,5.07
2022-11-30T04:09:18.348Z,6.65
2022-11-30T04:11:46.236Z,6.65
2022-11-30T04:14:14.104Z,6.35
2022-11-30T04:16:41.894Z,4.75
2022-11-30T04:19:09.731Z,4.82
2022-11-30T04:21:37.560Z,6.57
2022-11-30T04:24:05.721Z,6.28
2022-11-30T04:26:33.591Z,5.45
2022-11-30T04:29:04.440Z,4.97
2022-11-30T04:31:32.978Z,6.25
2022-11-30T04:34:01.260Z,5.38
2022-11-30T04:36:29.051Z,6.07
2022-11-30T04:38:56.861Z,5.85
2022-11-30T04:41:24.700Z,5.10
2022-11-30T04:43:52.517Z,5.13
2022-11-30T04:46:20.401Z,5.25
2022-11-30T04:48:48.350Z,5.60
2022-11-30T04:51:16.161Z,6.45
2022-11-30T04:53:43.980Z,4.95
2022-11-30T04:56:12.305Z,5.82
2022-11-30T04:58:40.235Z,6.63
2022-11-30T05:01:08.569Z,6.70
2022-11-30T05:03:36.628Z,5.85
2022-11-30T05:06:05.190Z,5.68
2022-11-30T05:08:33.005Z,5.60
2022-11-30T05:11:00.886Z,5.65
2022-11-30T05:13:28.895Z,6.53
2022-11-30T05:15:56.806Z,6.88
2022-11-30T05:18:24.832Z,7.25
2022-11-30T05:20:53.800Z,6.40
2022-11-30T05:23:22.359Z,5.95
2022-11-30T05:25:50.261Z,6.72
2022-11-30T05:28:18.108Z,5.85
2022-11-30T05:30:45.991Z,7.13
2022-11-30T05:33:13.902Z,7.97
2022-11-30T05:35:41.731Z,6.95
2022-11-30T05:38:09.542Z,7.03
2022-11-30T05:40:37.450Z,8.25
2022-11-30T05:43:06.383Z,6.53
2022-11-30T05:45:34.382Z,6.38
2022-11-30T05:48:02.317Z,6.35
2022-11-30T05:50:30.553Z,6.35
2022-11-30T05:53:01.097Z,6.72
2022-11-30T05:55:30.400Z,7.65
2022-11-30T05:57:58.569Z,6.47
2022-11-30T06:00:26.396Z,8.38
2022-11-30T06:02:58.552Z,23.30
2022-11-30T06:05:27.545Z,32.70
2022-11-30T06:07:55.424Z,19.48
2022-11-30T06:10:25.459Z,19.95
2022-11-30T06:12:53.288Z,16.13
2022-11-30T06:15:21.224Z,13.30
2022-11-30T06:17:49.084Z,12.90
2022-11-30T06:20:17.048Z,14.32
2022-11-30T06:22:46.838Z,11.73
2022-11-30T06:25:15.298Z,13.32
2022-11-30T06:27:44.018Z,13.85
2022-11-30T06:30:12.642Z,15.60
2022-11-30T06:32:40.641Z,13.70
2022-11-30T06:35:08.937Z,13.27
2022-11-30T06:37:36.895Z,13.93
2022-11-30T06:40:07.413Z,9.48
2022-11-30T06:42:36.990Z,10.65
2022-11-30T06:45:06.749Z,12.18
2022-11-30T06:47:34.643Z,8.88
2022-11-30T06:50:02.590Z,10.82
2022-11-30T06:52:31.855Z,11.30
2022-11-30T06:54:59.685Z,8.23
2022-11-30T06:57:29.132Z,8.73
2022-11-30T06:59:57.814Z,12.35
2022-11-30T07:02:25.685Z,11.43
2022-11-30T07:04:53.555Z,7.60
2022-11-30T07:07:21.626Z,7.43
2022-11-30T07:09:51.058Z,8.60
2022-11-30T07:12:19.116Z,8.50
2022-11-30T07:14:47.393Z,7.13
2022-11-30T07:17:15.418Z,9.60
2022-11-30T07:19:43.221Z,6.78
2022-11-30T07:22:11.019Z,8.50
2022-11-30T07:24:57.565Z,8.98
2022-11-30T07:27:25.584Z,7.32
2022-11-30T07:29:53.644Z,7.35
2022-11-30T07:32:21.566Z,9.25
2022-11-30T07:34:49.524Z,8.77
2022-11-30T07:37:17.984Z,9.07
2022-11-30T07:39:45.782Z,6.97
2022-11-30T07:42:13.671Z,8.43
2022-11-30T07:44:41.672Z,8.82
2022-11-30T07:47:09.664Z,9.23
2022-11-30T07:49:39.173Z,7.03
2022-11-30T07:52:07.345Z,7.88
2022-11-30T07:54:35.433Z,7.20
2022-11-30T07:57:03.268Z,6.38
2022-11-30T07:59:31.130Z,6.30
2022-11-30T08:02:00.593Z,7.85
2022-11-30T08:04:28.502Z,8.30
2022-11-30T08:06:56.434Z,7.63
2022-11-30T08:09:24.243Z,9.20
2022-11-30T08:11:52.087Z,8.10
2022-11-30T08:14:19.977Z,6.50
2022-11-30T08:16:49.205Z,7.65
2022-11-30T08:19:17.400Z,6.25
2022-11-30T08:21:45.323Z,6.78
2022-11-30T08:24:16.138Z,7.82
2022-11-30T08:26:44.266Z,7.28
2022-11-30T08:29:12.089Z,7.68
2022-11-30T08:31:40.318Z,8.43
2022-11-30T08:34:11.230Z,7.97
2022-11-30T08:36:40.257Z,6.72
2022-11-30T08:39:09.276Z,7.20
2022-11-30T08:41:39.084Z,5.95
2022-11-30T08:44:07.352Z,7.30
2022-11-30T08:46:50.712Z,6.50
2022-11-30T08:49:23.133Z,7.05
2022-11-30T08:54:46.507Z,7.22
2022-11-30T08:57:20.256Z,7.57
2022-11-30T08:59:49.074Z,6.43
2022-11-30T09:02:19.756Z,6.47
2022-11-30T09:04:49.620Z,6.97
2022-11-30T09:07:17.790Z,6.60
2022-11-30T09:09:45.864Z,6.95
2022-11-30T09:12:13.667Z,8.63
2022-11-30T09:14:41.523Z,7.40
2022-11-30T09:17:09.846Z,10.48
2022-11-30T09:19:37.691Z,9.57
2022-11-30T09:22:05.542Z,12.15
2022-11-30T09:24:33.375Z,9.30
2022-11-30T09:27:01.297Z,7.53
2022-11-30T09:29:29.111Z,9.10
2022-11-30T09:31:57.105Z,9.35
2022-11-30T09:36:57.523Z,7.07
2022-11-30T09:39:25.465Z,9.85
2022-11-30T09:41:59.054Z,8.90
2022-11-30T09:45:02.546Z,8.68
2022-11-30T09:47:39.626Z,10.75
2022-11-30T09:50:29.669Z,12.55
2022-11-30T09:53:18.682Z,9.38
2022-11-30T09:55:46.697Z,10.05
2022-11-30T09:58:43.204Z,10.75
2022-11-30T10:01:18.644Z,10.15
2022-11-30T10:03:47.334Z,10.07
2022-11-30T10:06:26.619Z,12.38
2022-11-30T10:09:35.041Z,8.65
2022-11-30T10:12:22.723Z,12.30
2022-11-30T10:14:57.237Z,10.40
2022-11-30T10:17:54.297Z,8.85
2022-11-30T10:20:37.328Z,10.68
2022-11-30T10:23:35.417Z,11.18
2022-11-30T10:26:32.000Z,9.30
2022-11-30T10:29:16.881Z,8.65
2022-11-30T10:31:47.755Z,9.70
